Impacts METAR Board
IDs:

KHDN - Hayden/Yampa Valley, CO, US

Updated at: 1300 UTC 07 Jul 2020
Potential Impact None Slight Moderate High
Time 07/01Z 07/02Z 07/03Z 07/04Z 07/05Z 07/06Z 07/07Z 07/08Z 07/09Z 07/10Z 07/11Z 07/12Z 07/13Z
Temp84 78 73 67 67 68 64 61 58 58 56 56 56
Dewpt40 38 42 41 40 39 40 39 38 38 38 37 38
Altim30.13 30.13 30.13 30.14 30.14 30.13 30.13 30.12 30.12 30.12 30.13 30.14 30.15
VIS10 10 10 10 10 10 10 10 10 10 10 10 10
CIG-- -- -- -- -- -- -- -- -- -- -- -- --
CoverCLRCLRCLRCLRCLRCLRCLRCLRCLRCLRCLRCLRCLR
FltCatVFRVFRVFRVFRVFRVFRVFRVFRVFRVFRVFRVFRVFR
WX--------------------------
WDir100010035011090100100110100100100120
WSpd11 5 8 4 7 8 11 10 9 10 9 10 9
WGst-- -- -- -- -- -- -- -- -- -- -- -- --
Raw hourly METARs
KHDN 070056Z AUTO 10011KT 10SM CLR 29/04 A3013 RMK AO2 SLP111 T02890044
KHDN 070156Z AUTO VRB05KT 10SM CLR 26/03 A3013 RMK AO2 SLP115 T02560033
KHDN 070256Z AUTO 10008KT 10SM CLR 23/06 A3013 RMK AO2 SLP112 T02280056 56004
KHDN 070356Z AUTO 35004KT 10SM CLR 19/05 A3014 RMK AO2 SLP115 T01940050
KHDN 070456Z AUTO 11007KT 10SM CLR 19/04 A3014 RMK AO2 SLP109 T01940044
KHDN 070556Z AUTO 09008KT 10SM CLR 20/04 A3013 RMK AO2 SLP102 T02000039 10300 20178 403110106 50001
KHDN 070656Z AUTO 10011KT 10SM CLR 18/04 A3013 RMK AO2 SLP099 T01780044
KHDN 070756Z AUTO 10010KT 10SM CLR 16/04 A3012 RMK AO2 SLP106 T01610039
KHDN 070856Z AUTO 11009KT 10SM CLR 14/03 A3012 RMK AO2 SLP108 T01440033 56003
KHDN 070956Z AUTO 10010KT 10SM CLR 14/03 A3012 RMK AO2 SLP107 T01440033
KHDN 071056Z AUTO 10009KT 10SM CLR 13/03 A3013 RMK AO2 SLP109 T01330033
KHDN 071156Z AUTO 10010KT 10SM CLR 13/03 A3014 RMK AO2 SLP114 T01330028 10200 20128 53005
KHDN 071256Z AUTO 12009KT 10SM CLR 13/03 A3015 RMK AO2 SLP120 T01330033



Page loaded:  13:49 UTC  |   06:49 AM Pacific  |   07:49 AM Mountain  |   08:49 AM Central  |   09:49 AM Eastern

 

ADVISORIES

FORECASTS

FORECASTS

OBSERVATIONS

USER TOOLS

ABOUT US